Annapolis, California
Current Conditions -  °F | °C
As of 12:56 PM on Wednesday 17 Dec 2014 (Local Time) from KUKI Reporting Station
Overcast Overcast  
Wind Chill: 54°   Ceiling: 5000
Heat Index: 54°   Visibility: 10mi
Dew Point: 46°   Wind: 5mph
Humidity: 75%   Direction: 150°SSE
Pressure: 29.99"   Gusts: NA
Location:  38.71°N, 123.35°W
Report Text: KUKI 172056Z AUTO 15004KT 10SM FEW033 BKN050 OVC080 12/08 A2999 RMK AO2 SLP153 T01220078 58014
Loading
Personal Weather Stations






























Interactive Weather Map New forecast layout! Learn more

10-Day Weather Forecast

Advertisements
Track Severe Weather on mobile